Chimney Rock, North Carolina
Current Conditions -  °F | °C
As of 12:54 PM on Tuesday 21 Oct 2014 (Local Time) from KAVL Reporting Station
Few Clouds Few Clouds  
Wind Chill: 64°   Ceiling: Unl
Heat Index: 64°   Visibility: 10mi
Dew Point: 45°   Wind: 9mph
Humidity: 50%   Direction: 330°NNW
Pressure: 29.97"   Gusts: 21mph
Location:  35.44°N, 82.25°W
Report Text: KAVL 211654Z 33008G18KT 10SM FEW044 18/07 A2997 RMK AO2 SLP135 T01780072
Loading
Personal Weather Stations






























Interactive Weather Map New forecast layout! Learn more

10-Day Weather Forecast

Advertisements
Track Severe Weather on mobile